Time;durP1;ratioP1;P1;durP2;ratioP2;P2;SDS_P1;SDS_P2;PMS_P1;PMS_P2;Temp;Humidity;BMP_temperature;BMP_pressure;BME280_temperature;BME280_humidity;BME280_pressure;Samples;Min_cycle;Max_cycle;Signal;HPM_P1;HPM_P2
2023/12/04 00:01:16;;;;;;;4.77;4.20;;;15.80;55.00;16.70;100678.00;;;;5049716;28;20198;-44
2023/12/04 00:03:41;;;;;;;4.40;4.00;;;15.80;55.10;16.70;100669.00;;;;5047546;28;20181;-44
2023/12/04 00:06:10;;;;;;;4.50;4.10;;;15.80;55.10;16.60;100681.00;;;;5049742;28;20255;-44
2023/12/04 00:08:37;;;;;;;3.97;3.63;;;15.80;55.30;16.60;100671.00;;;;5049585;28;20607;-44
2023/12/04 00:11:03;;;;;;;4.50;4.10;;;15.70;55.30;16.60;100679.00;;;;5049440;28;20187;-44
2023/12/04 00:13:29;;;;;;;4.33;3.83;;;15.70;55.30;16.60;100656.00;;;;5049205;28;20210;-43
2023/12/04 00:15:54;;;;;;;4.30;3.90;;;15.70;55.30;16.50;100657.00;;;;5049673;28;20187;-43
2023/12/04 00:18:20;;;;;;;4.40;4.00;;;15.70;55.30;16.50;100653.00;;;;5049845;28;20172;-44
2023/12/04 00:20:46;;;;;;;4.30;3.90;;;15.60;55.30;16.50;100651.00;;;;5044773;28;20636;-45
2023/12/04 00:23:11;;;;;;;4.27;3.87;;;15.60;55.60;16.50;100653.00;;;;5049409;28;20252;-44
2023/12/04 00:25:37;;;;;;;4.10;3.80;;;15.60;55.70;16.40;100643.00;;;;5049388;28;20203;-44
2023/12/04 00:28:03;;;;;;;3.83;3.53;;;15.60;55.80;16.40;100645.00;;;;5049379;28;20188;-45
2023/12/04 00:30:29;;;;;;;4.33;3.60;;;15.50;55.70;16.40;100644.00;;;;5049588;28;20191;-45
2023/12/04 00:32:55;;;;;;;3.67;3.37;;;15.50;55.80;16.30;100635.00;;;;5049036;28;20670;-44
2023/12/04 00:35:20;;;;;;;4.20;3.87;;;15.50;55.90;16.30;100632.00;;;;5049095;28;20200;-45
2023/12/04 00:37:46;;;;;;;4.23;3.83;;;15.50;55.90;16.30;100619.00;;;;5049185;28;20178;-43
2023/12/04 00:40:12;;;;;;;4.07;3.67;;;15.50;56.10;16.30;100627.00;;;;5048978;28;20228;-44
2023/12/04 00:42:38;;;;;;;3.87;3.57;;;15.40;56.00;16.20;100632.00;;;;5049233;28;20182;-44
2023/12/04 00:45:04;;;;;;;4.03;3.63;;;15.40;56.10;16.20;100634.00;;;;5049321;28;20191;-44
2023/12/04 00:47:30;;;;;;;3.60;3.30;;;15.40;56.10;16.20;100612.00;;;;5049220;28;20186;-44
2023/12/04 00:49:55;;;;;;;3.63;3.33;;;15.30;56.00;16.20;100615.00;;;;5049108;28;20660;-45
2023/12/04 00:52:21;;;;;;;3.67;3.37;;;15.30;56.10;16.20;100612.00;;;;5048884;28;20236;-45
2023/12/04 00:54:47;;;;;;;3.80;3.50;;;15.30;56.20;16.20;100615.00;;;;5049053;28;20199;-45
2023/12/04 00:57:13;;;;;;;3.80;3.50;;;15.30;56.20;16.10;100617.00;;;;5048952;28;20187;-42
2023/12/04 00:59:38;;;;;;;3.90;3.60;;;15.30;56.20;16.10;100605.00;;;;5049132;28;20174;-44
2023/12/04 01:02:06;;;;;;;3.90;3.60;;;15.30;56.30;16.10;100608.00;;;;5047611;28;20206;-44
2023/12/04 01:04:32;;;;;;;3.77;3.47;;;15.30;56.30;16.10;100602.00;;;;5045846;28;20294;-44
2023/12/04 01:06:57;;;;;;;3.73;3.40;;;15.20;56.30;16.10;100603.00;;;;5047881;28;20262;-44
2023/12/04 01:09:24;;;;;;;3.83;3.53;;;15.20;56.30;15.80;100598.00;;;;5047404;28;20181;-44
2023/12/04 01:11:53;;;;;;;3.50;3.20;;;15.20;56.40;16.00;100597.00;;;;5047554;28;20185;-44
2023/12/04 01:14:20;;;;;;;3.80;3.50;;;15.10;56.40;16.00;100583.00;;;;5043570;28;20729;-44
2023/12/04 01:16:45;;;;;;;3.70;3.40;;;15.10;56.40;16.00;100589.00;;;;5047729;28;20181;-44
2023/12/04 01:19:11;;;;;;;3.70;3.40;;;15.10;56.50;16.00;100588.00;;;;5046458;28;20182;-44
2023/12/04 01:21:37;;;;;;;3.70;3.40;;;15.10;56.50;15.70;100572.00;;;;5047804;28;20201;-43
2023/12/04 01:24:03;;;;;;;3.70;3.40;;;15.00;56.40;15.90;100578.00;;;;5047508;28;20213;-44
2023/12/04 01:26:29;;;;;;;3.60;3.30;;;15.00;56.40;15.70;100575.00;;;;5048040;28;20182;-44
2023/12/04 01:28:55;;;;;;;3.70;3.40;;;15.00;56.50;15.90;100570.00;;;;5047902;28;20178;-44
2023/12/04 01:31:21;;;;;;;3.73;3.43;;;15.10;56.60;15.90;100571.00;;;;5048056;28;20605;-44
2023/12/04 01:33:46;;;;;;;3.73;3.43;;;15.00;56.60;15.80;100576.00;;;;5051293;28;20213;-43
2023/12/04 01:36:12;;;;;;;3.57;3.27;;;15.00;56.60;15.80;100577.00;;;;5051445;28;20664;-43
2023/12/04 01:38:38;;;;;;;3.43;3.17;;;14.90;56.70;15.80;100577.00;;;;5051233;28;20181;-44
2023/12/04 01:41:04;;;;;;;3.83;3.53;;;14.90;56.70;15.80;100570.00;;;;5051260;28;20178;-44
2023/12/04 01:43:30;;;;;;;3.77;3.47;;;15.00;56.80;15.80;100557.00;;;;5051035;28;20193;-44
2023/12/04 01:45:56;;;;;;;4.67;3.40;;;14.90;56.70;15.80;100571.00;;;;5051446;28;20174;-44
2023/12/04 01:48:21;;;;;;;3.60;3.30;;;14.90;56.80;15.80;100571.00;;;;5050130;28;20179;-44
2023/12/04 01:50:47;;;;;;;3.70;3.40;;;14.90;56.80;15.70;100567.00;;;;5052938;28;20258;-43
2023/12/04 01:53:13;;;;;;;3.40;3.10;;;14.90;57.20;15.70;100569.00;;;;5053428;28;20218;-43
2023/12/04 01:55:39;;;;;;;3.37;3.17;;;15.00;56.80;15.70;100559.00;;;;5052937;28;20592;-43
2023/12/04 01:58:04;;;;;;;3.47;3.17;;;14.90;56.70;15.70;100558.00;;;;5033232;28;20197;-43
2023/12/04 02:00:33;;;;;;;3.27;3.07;;;14.90;56.70;15.70;100542.00;;;;5031077;28;20237;-43
2023/12/04 02:02:59;;;;;;;3.73;3.43;;;14.90;56.70;15.70;100549.00;;;;5032899;28;20205;-43
2023/12/04 02:05:26;;;;;;;3.37;3.07;;;14.80;56.60;15.70;100542.00;;;;5030168;28;20190;-43
2023/12/04 02:07:52;;;;;;;3.53;3.23;;;14.80;56.60;15.70;100545.00;;;;5050161;28;20264;-43
2023/12/04 02:10:18;;;;;;;3.30;3.00;;;14.80;56.70;15.70;100544.00;;;;5049580;28;20186;-44
2023/12/04 02:12:44;;;;;;;3.30;3.10;;;14.80;56.70;15.60;100549.00;;;;5050536;28;20824;-43
2023/12/04 02:15:10;;;;;;;3.60;3.30;;;14.80;56.70;15.60;100542.00;;;;5049401;28;20204;-44
2023/12/04 02:17:35;;;;;;;3.10;2.90;;;14.80;56.70;15.60;100531.00;;;;5050911;28;20182;-44
2023/12/04 02:20:03;;;;;;;3.50;3.20;;;14.70;56.70;15.60;100531.00;;;;5032903;28;20636;-44
2023/12/04 02:22:28;;;;;;;3.30;3.00;;;14.70;57.40;15.60;100542.00;;;;5049063;28;20194;-45
2023/12/04 02:24:58;;;;;;;3.47;3.17;;;14.70;56.80;15.60;100545.00;;;;5050532;28;20250;-44
2023/12/04 02:27:34;;;;;;;3.33;3.03;;;14.70;56.70;15.60;100546.00;;;;5050759;28;20177;-44
2023/12/04 02:30:00;;;;;;;3.30;3.00;;;14.70;56.80;15.60;100551.00;;;;5034213;28;20185;-43
2023/12/04 02:32:29;;;;;;;3.20;2.90;;;14.70;56.90;15.50;100550.00;;;;5046779;28;20210;-43
2023/12/04 02:34:55;;;;;;;3.40;3.13;;;14.70;56.90;15.50;100540.00;;;;5032644;28;20188;-44
2023/12/04 02:37:21;;;;;;;4.83;3.23;;;14.60;56.90;15.50;100530.00;;;;5029478;28;20175;-43
2023/12/04 02:39:48;;;;;;;3.37;3.10;;;14.60;56.90;15.50;100523.00;;;;5028394;28;20177;-46
2023/12/04 02:42:14;;;;;;;3.07;2.87;;;14.60;57.10;15.50;100519.00;;;;5050011;28;20183;-44
2023/12/04 02:44:40;;;;;;;3.30;3.10;;;14.60;57.00;15.50;100508.00;;;;5014309;28;20195;-44
2023/12/04 02:47:05;;;;;;;3.07;2.87;;;14.60;57.10;15.40;100519.00;;;;5049932;28;20193;-44
2023/12/04 02:49:31;;;;;;;3.50;3.20;;;14.50;57.00;15.40;100517.00;;;;5048683;28;20183;-43
2023/12/04 02:51:57;;;;;;;3.23;3.00;;;14.50;57.00;15.40;100501.00;;;;5049734;28;20819;-43
2023/12/04 02:54:23;;;;;;;3.40;3.10;;;14.50;57.70;15.40;100502.00;;;;5049669;28;20218;-43
2023/12/04 02:56:49;;;;;;;3.40;3.10;;;14.50;57.00;15.40;100496.00;;;;5050075;28;20163;-44
2023/12/04 02:59:15;;;;;;;3.20;3.00;;;14.50;57.00;15.30;100489.00;;;;5049778;28;20181;-43
2023/12/04 03:01:40;;;;;;;3.50;3.20;;;14.50;57.00;15.30;100493.00;;;;5049537;28;20224;-43
2023/12/04 03:04:06;;;;;;;3.40;3.10;;;14.40;57.00;15.30;100483.00;;;;5049446;28;20198;-43
2023/12/04 03:06:32;;;;;;;3.17;2.87;;;14.40;57.00;15.20;100489.00;;;;5049867;28;20273;-44
2023/12/04 03:08:59;;;;;;;3.67;3.37;;;14.40;57.00;15.30;100472.00;;;;5050041;28;20655;-44
2023/12/04 03:11:25;;;;;;;3.53;3.23;;;14.40;57.10;15.30;100473.00;;;;5049856;28;20173;-44
2023/12/04 03:13:51;;;;;;;3.33;3.03;;;14.40;57.10;15.30;100461.00;;;;5044132;28;20211;-43
2023/12/04 03:16:19;;;;;;;3.37;2.90;;;14.40;57.10;15.20;100463.00;;;;5049483;28;20201;-44
2023/12/04 03:18:45;;;;;;;3.80;3.10;;;14.30;57.00;15.20;100475.00;;;;5049816;28;20698;-44
2023/12/04 03:21:11;;;;;;;3.47;3.17;;;14.30;57.00;15.20;100468.00;;;;5049594;28;20303;-44
2023/12/04 03:23:37;;;;;;;3.23;3.03;;;14.30;57.00;15.20;100469.00;;;;5049303;28;20205;-44
2023/12/04 03:26:03;;;;;;;3.00;2.80;;;14.30;57.60;15.20;100460.00;;;;5049351;28;20650;-45
2023/12/04 03:28:29;;;;;;;3.23;2.93;;;14.30;57.00;15.10;100458.00;;;;5049450;28;20178;-44
2023/12/04 03:30:54;;;;;;;3.20;3.00;;;14.30;57.00;15.00;100454.00;;;;5049097;28;20640;-44
2023/12/04 03:33:20;;;;;;;3.00;2.80;;;14.30;57.00;15.10;100453.00;;;;5046788;28;20194;-44
2023/12/04 03:35:46;;;;;;;3.03;2.83;;;14.20;56.90;15.10;100459.00;;;;5049127;28;20205;-44
2023/12/04 03:38:12;;;;;;;3.17;2.97;;;14.20;56.90;15.10;100462.00;;;;5046130;28;20545;-44
2023/12/04 03:40:38;;;;;;;3.30;3.00;;;14.20;56.90;15.10;100450.00;;;;5049174;28;20198;-44
2023/12/04 03:43:03;;;;;;;3.37;3.07;;;14.20;56.90;15.10;100458.00;;;;5048958;28;20178;-44
2023/12/04 03:45:29;;;;;;;3.40;3.13;;;14.20;57.10;15.10;100456.00;;;;5050034;28;20245;-45
2023/12/04 03:47:55;;;;;;;3.00;2.80;;;14.20;57.00;15.00;100447.00;;;;5049277;28;20181;-45
2023/12/04 03:50:20;;;;;;;3.00;2.80;;;14.10;56.90;15.10;100442.00;;;;5049230;28;20256;-44
2023/12/04 03:52:46;;;;;;;3.00;2.80;;;14.10;56.90;15.00;100451.00;;;;5048548;28;20225;-44
2023/12/04 03:55:12;;;;;;;3.40;3.10;;;14.10;56.90;15.00;100432.00;;;;5047757;28;20190;-44
2023/12/04 03:57:38;;;;;;;3.53;3.00;;;14.10;56.90;15.00;100431.00;;;;5048999;28;20206;-45
2023/12/04 04:00:05;;;;;;;3.17;2.97;;;14.00;56.80;15.00;100434.00;;;;5046502;28;20192;-44
2023/12/04 04:02:30;;;;;;;3.77;3.13;;;14.10;56.90;15.00;100427.00;;;;5047329;28;20572;-44
2023/12/04 04:04:56;;;;;;;3.50;3.20;;;14.00;56.90;15.00;100427.00;;;;5049535;28;20193;-44
2023/12/04 04:07:22;;;;;;;3.40;3.10;;;14.00;56.90;15.00;100430.00;;;;5049754;28;20170;-44
2023/12/04 04:09:48;;;;;;;3.10;2.90;;;14.00;56.90;14.90;100423.00;;;;5050077;28;20174;-44
2023/12/04 04:12:14;;;;;;;3.27;3.00;;;13.90;56.80;14.90;100413.00;;;;5049431;28;20639;-44
2023/12/04 04:14:39;;;;;;;3.37;3.07;;;14.00;57.30;14.90;100421.00;;;;5049517;28;20214;-45
2023/12/04 04:17:05;;;;;;;3.17;2.97;;;13.90;56.90;14.90;100421.00;;;;5049932;28;20543;-45
2023/12/04 04:19:31;;;;;;;3.00;2.80;;;13.90;56.90;14.90;100415.00;;;;5049717;28;20194;-44
2023/12/04 04:21:56;;;;;;;3.03;2.80;;;13.90;56.90;14.70;100403.00;;;;5049548;28;20174;-44
2023/12/04 04:24:22;;;;;;;3.30;2.80;;;13.90;56.80;14.90;100414.00;;;;5048274;28;20186;-45
2023/12/04 04:26:48;;;;;;;3.13;2.83;;;13.90;56.90;14.90;100407.00;;;;5031756;28;20217;-44
2023/12/04 04:29:14;;;;;;;4.97;3.00;;;13.90;57.00;14.90;100406.00;;;;5049211;28;20183;-44
2023/12/04 04:31:39;;;;;;;5.90;3.00;;;13.90;57.10;14.90;100397.00;;;;5049106;28;20170;-44
2023/12/04 04:34:05;;;;;;;5.30;2.90;;;13.90;57.10;14.90;100396.00;;;;5046617;28;20239;-44
2023/12/04 04:36:31;;;;;;;5.37;3.20;;;13.90;57.80;14.80;100399.00;;;;5049100;28;20520;-44
2023/12/04 04:38:56;;;;;;;3.77;3.47;;;13.80;57.20;14.80;100395.00;;;;5049146;28;20178;-44
2023/12/04 04:41:23;;;;;;;4.17;3.57;;;13.80;56.80;14.80;100382.00;;;;5049377;28;20170;-44
2023/12/04 04:43:48;;;;;;;4.77;3.60;;;13.80;56.60;14.70;100393.00;;;;5044932;28;20253;-44
2023/12/04 04:46:14;;;;;;;5.97;3.70;;;13.80;56.60;14.70;100384.00;;;;5049220;28;20705;-44
2023/12/04 04:48:40;;;;;;;4.30;3.87;;;13.70;55.90;14.70;100393.00;;;;5049031;28;20325;-44
2023/12/04 04:51:06;;;;;;;4.20;3.90;;;13.70;56.00;14.60;100393.00;;;;5047816;28;20247;-44
2023/12/04 04:53:32;;;;;;;4.23;3.77;;;13.70;55.80;14.60;100383.00;;;;5048687;28;20241;-44
2023/12/04 04:55:58;;;;;;;3.87;3.57;;;13.70;55.50;14.60;100397.00;;;;5049140;28;20166;-45
2023/12/04 04:58:23;;;;;;;4.40;4.00;;;13.60;55.40;14.60;100396.00;;;;5048882;28;20175;-45
2023/12/04 05:00:49;;;;;;;4.20;3.90;;;13.60;55.30;14.60;100386.00;;;;5047869;28;20181;-43
2023/12/04 05:03:15;;;;;;;4.17;3.87;;;13.60;55.30;14.50;100392.00;;;;5048849;28;20193;-44
2023/12/04 05:05:41;;;;;;;5.00;4.10;;;13.60;55.50;14.50;100373.00;;;;5047692;28;20197;-44
2023/12/04 05:08:06;;;;;;;4.23;3.93;;;13.60;55.50;14.50;100398.00;;;;5052415;28;20178;-45
2023/12/04 05:10:32;;;;;;;3.97;3.57;;;13.60;55.50;14.50;100391.00;;;;5053125;28;20251;-44
2023/12/04 05:12:58;;;;;;;5.77;3.80;;;13.50;55.50;14.40;100386.00;;;;5052866;28;20194;-44
2023/12/04 05:15:24;;;;;;;4.00;3.70;;;13.50;55.20;14.40;100390.00;;;;5053074;28;20276;-46
2023/12/04 05:17:51;;;;;;;4.40;4.00;;;13.50;55.30;14.40;100384.00;;;;5053098;28;20185;-43
2023/12/04 05:20:16;;;;;;;4.33;3.93;;;13.50;55.00;14.40;100382.00;;;;5052798;28;20170;-43
2023/12/04 05:22:42;;;;;;;4.37;4.07;;;13.50;55.00;14.40;100379.00;;;;5052768;28;20192;-44
2023/12/04 05:25:08;;;;;;;4.20;3.90;;;13.40;55.00;14.30;100376.00;;;;5052888;28;20202;-44
2023/12/04 05:27:34;;;;;;;4.77;3.97;;;13.40;55.00;14.30;100356.00;;;;5052765;28;20638;-44
2023/12/04 05:29:59;;;;;;;4.93;4.53;;;13.40;54.70;14.30;100356.00;;;;5052986;28;20216;-45
2023/12/04 05:32:25;;;;;;;4.30;4.00;;;13.40;54.60;14.30;100355.00;;;;5042510;28;21180;-43
2023/12/04 05:34:51;;;;;;;4.30;3.57;;;13.40;55.00;14.30;100358.00;;;;5048641;28;20190;-43
2023/12/04 05:37:17;;;;;;;4.10;3.80;;;13.30;55.10;14.30;100354.00;;;;5051792;28;20187;-43
2023/12/04 05:39:42;;;;;;;4.57;3.60;;;13.40;55.10;14.30;100364.00;;;;5052893;28;20706;-43
2023/12/04 05:42:08;;;;;;;4.13;3.50;;;13.40;55.10;14.00;100353.00;;;;5051403;28;20194;-44
2023/12/04 05:44:34;;;;;;;3.90;3.50;;;13.30;55.20;14.30;100358.00;;;;5051695;28;20198;-44
2023/12/04 05:47:00;;;;;;;4.07;3.67;;;13.30;55.50;14.30;100351.00;;;;5051956;28;20178;-44
2023/12/04 05:49:26;;;;;;;3.97;3.67;;;13.30;55.50;14.20;100348.00;;;;5051998;28;20189;-43
2023/12/04 05:51:52;;;;;;;3.50;3.20;;;13.30;55.50;14.20;100344.00;;;;5050818;28;20186;-43
2023/12/04 05:54:17;;;;;;;3.77;3.47;;;13.30;55.50;14.20;100348.00;;;;5051275;28;20201;-47
2023/12/04 05:56:43;;;;;;;4.33;3.50;;;13.30;55.50;14.20;100346.00;;;;5051976;28;20214;-44
2023/12/04 05:59:09;;;;;;;3.60;3.30;;;13.30;55.60;14.20;100346.00;;;;5051673;28;20178;-43
2023/12/04 06:01:35;;;;;;;3.87;3.40;;;13.30;55.60;14.20;100337.00;;;;5051271;28;20190;-43
2023/12/04 06:04:01;;;;;;;3.80;3.50;;;13.30;55.80;14.20;100345.00;;;;5049134;28;20198;-44
2023/12/04 06:06:27;;;;;;;4.30;3.10;;;13.30;55.90;14.20;100347.00;;;;5052163;28;20178;-44
2023/12/04 06:08:52;;;;;;;4.73;3.37;;;13.20;55.80;14.20;100350.00;;;;5052271;28;20205;-44
2023/12/04 06:11:18;;;;;;;3.90;3.23;;;13.20;55.90;14.10;100344.00;;;;5051737;28;20541;-44
2023/12/04 06:13:44;;;;;;;3.80;3.50;;;13.20;56.00;14.10;100337.00;;;;5047672;28;20279;-44
2023/12/04 06:16:10;;;;;;;4.87;3.20;;;13.20;56.10;13.80;100335.00;;;;5050025;28;20205;-44
2023/12/04 06:18:35;;;;;;;4.87;3.53;;;13.20;56.10;14.10;100341.00;;;;5048924;28;20205;-44
2023/12/04 06:21:01;;;;;;;3.70;3.40;;;13.10;56.00;14.00;100338.00;;;;5050519;28;20580;-44
2023/12/04 06:23:27;;;;;;;3.80;3.20;;;13.10;56.00;14.00;100339.00;;;;5050268;28;20189;-44
2023/12/04 06:25:53;;;;;;;3.37;3.07;;;13.10;56.00;14.00;100333.00;;;;5051166;28;20233;-44
2023/12/04 06:28:19;;;;;;;3.57;3.27;;;13.10;56.00;14.00;100306.00;;;;5047551;28;20182;-44
2023/12/04 06:30:45;;;;;;;3.57;3.27;;;13.00;56.00;14.00;100316.00;;;;5051659;28;20190;-44
2023/12/04 06:33:12;;;;;;;3.53;3.23;;;13.00;56.00;14.00;100319.00;;;;5051404;28;20206;-44
2023/12/04 06:35:38;;;;;;;3.63;3.33;;;13.00;56.00;14.00;100318.00;;;;5051389;28;20205;-49
2023/12/04 06:38:07;;;;;;;3.37;3.07;;;13.00;56.00;13.90;100312.00;;;;5046374;28;20186;-44
2023/12/04 06:40:34;;;;;;;4.23;3.20;;;13.00;56.10;13.90;100311.00;;;;5041962;28;20265;-45
2023/12/04 06:43:00;;;;;;;3.30;3.00;;;13.00;56.10;13.90;100303.00;;;;5049151;28;20217;-44
2023/12/04 06:45:27;;;;;;;3.37;3.07;;;13.00;56.10;13.90;100289.00;;;;5050770;28;20673;-44
2023/12/04 06:47:52;;;;;;;3.27;2.97;;;13.00;56.10;13.90;100275.00;;;;5051296;28;20236;-44
2023/12/04 06:50:18;;;;;;;3.13;2.83;;;12.90;56.10;13.90;100282.00;;;;5030171;28;20183;-44
2023/12/04 06:52:44;;;;;;;4.90;3.33;;;12.90;56.50;13.80;100267.00;;;;5050305;28;20206;-45
2023/12/04 06:55:12;;;;;;;3.30;3.00;;;12.90;56.10;13.80;100273.00;;;;5050376;28;20556;-44
2023/12/04 06:57:37;;;;;;;3.40;3.10;;;12.90;56.10;13.80;100266.00;;;;5047400;28;20652;-44
2023/12/04 07:00:06;;;;;;;3.30;3.00;;;12.90;56.10;13.80;100263.00;;;;5050697;28;20181;-44
2023/12/04 07:02:32;;;;;;;3.60;3.30;;;12.90;56.20;13.80;100261.00;;;;5048007;28;20240;-44
2023/12/04 07:04:57;;;;;;;3.40;3.10;;;12.80;56.10;13.80;100225.00;;;;5050496;28;20280;-44
2023/12/04 07:07:23;;;;;;;3.30;3.00;;;12.80;56.10;13.80;100224.00;;;;5050472;28;20186;-44
2023/12/04 07:09:49;;;;;;;3.13;2.90;;;12.80;56.10;13.70;100243.00;;;;5049417;28;20181;-44
2023/12/04 07:12:14;;;;;;;2.93;2.73;;;12.80;56.20;13.70;100235.00;;;;5047283;28;20309;-44
2023/12/04 07:14:41;;;;;;;3.97;3.10;;;12.80;56.20;13.70;100229.00;;;;5044736;28;20229;-45
2023/12/04 07:17:07;;;;;;;3.20;2.90;;;12.80;56.20;13.70;100222.00;;;;5046354;28;20232;-44
2023/12/04 07:19:33;;;;;;;3.40;3.10;;;12.80;56.20;13.70;100223.00;;;;5045544;28;20265;-44
2023/12/04 07:21:58;;;;;;;3.20;3.00;;;12.80;56.30;13.70;100219.00;;;;5049551;28;20234;-44
2023/12/04 07:24:26;;;;;;;3.17;2.90;;;12.70;56.10;13.60;100229.00;;;;5048214;28;20221;-44
2023/12/04 07:26:52;;;;;;;3.47;3.17;;;12.70;56.10;13.60;100230.00;;;;5045625;28;20185;-45
2023/12/04 07:29:17;;;;;;;3.30;3.10;;;12.70;56.10;13.60;100229.00;;;;5050060;28;20170;-44
2023/12/04 07:31:43;;;;;;;3.30;3.00;;;12.70;56.20;13.60;100232.00;;;;5049185;28;20178;-43
2023/12/04 07:34:09;;;;;;;3.00;2.73;;;12.70;56.20;13.60;100229.00;;;;5049615;28;20206;-44
2023/12/04 07:36:35;;;;;;;3.10;2.90;;;12.70;56.20;13.60;100235.00;;;;5048424;28;20174;-44
2023/12/04 07:39:01;;;;;;;3.10;2.90;;;12.70;56.20;13.60;100241.00;;;;5049238;28;20183;-43
2023/12/04 07:41:26;;;;;;;3.10;2.90;;;12.70;56.20;13.50;100226.00;;;;5047947;28;20445;-45
2023/12/04 07:43:52;;;;;;;3.13;2.83;;;12.60;56.10;13.50;100205.00;;;;5049198;28;20210;-44
2023/12/04 07:46:18;;;;;;;3.00;2.80;;;12.60;56.20;13.50;100223.00;;;;5049745;28;20180;-44
2023/12/04 07:48:43;;;;;;;3.10;2.80;;;12.60;56.30;13.50;100222.00;;;;5047391;28;20197;-44
2023/12/04 07:51:10;;;;;;;2.97;2.77;;;12.60;56.20;13.50;100221.00;;;;5049568;28;20175;-44
2023/12/04 07:53:35;;;;;;;3.40;3.10;;;12.60;56.30;13.50;100223.00;;;;5049358;28;20221;-43
2023/12/04 07:56:04;;;;;;;3.30;3.00;;;12.60;56.20;13.50;100225.00;;;;5048937;28;20178;-44
2023/12/04 07:58:31;;;;;;;3.20;2.90;;;12.50;56.20;13.40;100227.00;;;;5049755;28;20315;-44
2023/12/04 08:00:57;;;;;;;3.43;3.00;;;12.50;56.20;13.40;100227.00;;;;5049066;28;20190;-44
2023/12/04 08:03:23;;;;;;;3.57;2.80;;;12.60;56.30;13.40;100223.00;;;;5047011;28;20277;-44
2023/12/04 08:05:50;;;;;;;2.90;2.70;;;12.60;56.30;13.40;100230.00;;;;5048929;28;20194;-43
2023/12/04 08:08:16;;;;;;;3.03;2.83;;;12.50;56.30;13.40;100220.00;;;;5049073;28;20604;-44
2023/12/04 08:10:42;;;;;;;2.80;2.60;;;12.50;56.30;13.40;100232.00;;;;5049073;28;20197;-44
2023/12/04 08:13:08;;;;;;;3.10;2.87;;;12.50;56.30;13.40;100217.00;;;;5049314;28;20190;-44
2023/12/04 08:15:33;;;;;;;2.90;2.70;;;12.50;56.30;13.40;100226.00;;;;5048678;28;20206;-43
2023/12/04 08:18:00;;;;;;;2.90;2.70;;;12.50;56.30;13.40;100232.00;;;;5049136;28;20174;-43
2023/12/04 08:20:25;;;;;;;3.23;2.93;;;12.40;56.20;13.40;100223.00;;;;5048553;28;20379;-43
2023/12/04 08:22:51;;;;;;;3.20;2.90;;;12.50;56.30;13.30;100226.00;;;;5048627;28;20696;-44
2023/12/04 08:25:17;;;;;;;2.90;2.70;;;12.40;56.30;13.30;100228.00;;;;5048334;28;20296;-44
2023/12/04 08:27:43;;;;;;;3.17;2.90;;;12.40;56.20;13.30;100223.00;;;;5049017;28;20217;-44
2023/12/04 08:30:09;;;;;;;3.00;2.80;;;12.40;56.30;13.30;100220.00;;;;5048997;28;20177;-44
2023/12/04 08:32:34;;;;;;;3.30;3.00;;;12.40;56.30;13.30;100211.00;;;;5048675;28;20277;-43
2023/12/04 08:35:00;;;;;;;3.00;2.80;;;12.40;56.30;13.30;100210.00;;;;5048512;28;20187;-43
2023/12/04 08:37:26;;;;;;;3.00;2.80;;;12.40;56.40;13.30;100216.00;;;;5048578;28;20170;-43
2023/12/04 08:39:51;;;;;;;2.93;2.73;;;12.40;56.40;13.20;100196.00;;;;5048778;28;20175;-43
2023/12/04 08:42:18;;;;;;;3.00;2.80;;;12.30;56.30;13.20;100207.00;;;;5046932;28;20491;-42
2023/12/04 08:44:45;;;;;;;3.10;2.90;;;12.30;56.20;13.20;100188.00;;;;5048777;28;20203;-43
2023/12/04 08:47:11;;;;;;;3.23;2.93;;;12.40;56.40;13.20;100193.00;;;;5048408;28;20170;-43
2023/12/04 08:49:40;;;;;;;3.10;2.90;;;12.30;56.30;13.20;100188.00;;;;5048826;28;20549;-43
2023/12/04 08:52:06;;;;;;;3.20;2.90;;;12.30;56.40;13.20;100173.00;;;;5048476;28;20178;-44
2023/12/04 08:54:32;;;;;;;2.90;2.70;;;12.30;56.40;13.20;100174.00;;;;5048819;28;20660;-43
2023/12/04 08:56:58;;;;;;;3.20;2.90;;;12.30;56.40;13.20;100179.00;;;;5048674;28;20232;-43
2023/12/04 08:59:24;;;;;;;3.13;2.90;;;12.30;56.40;13.20;100161.00;;;;5047385;28;20369;-43
2023/12/04 09:01:49;;;;;;;2.87;2.67;;;12.30;56.40;13.10;100159.00;;;;5048676;28;20181;-43
2023/12/04 09:04:15;;;;;;;2.80;2.60;;;12.30;56.40;13.10;100153.00;;;;5043999;28;20229;-43
2023/12/04 09:06:41;;;;;;;3.10;2.90;;;12.20;56.40;13.10;100147.00;;;;5046398;28;20260;-43
2023/12/04 09:09:07;;;;;;;2.73;2.53;;;12.20;56.40;13.10;100158.00;;;;5047473;28;20778;-43
2023/12/04 09:11:33;;;;;;;2.90;2.70;;;12.20;56.40;13.10;100144.00;;;;5047998;28;20174;-43
2023/12/04 09:13:58;;;;;;;3.17;2.87;;;12.20;56.40;13.10;100154.00;;;;5045814;28;20251;-43
2023/12/04 09:16:24;;;;;;;2.83;2.63;;;12.20;56.40;13.10;100165.00;;;;5047651;28;20202;-44
2023/12/04 09:18:50;;;;;;;2.80;2.60;;;12.20;56.40;12.80;100151.00;;;;5048583;28;20603;-44
2023/12/04 09:21:16;;;;;;;3.00;2.80;;;12.20;56.30;13.10;100153.00;;;;5048288;28;20175;-43
2023/12/04 09:23:42;;;;;;;3.37;2.70;;;12.20;56.30;13.10;100132.00;;;;5047880;28;20182;-44
2023/12/04 09:26:08;;;;;;;3.47;3.17;;;12.20;56.20;13.10;100136.00;;;;5046928;28;20238;-44
2023/12/04 09:28:36;;;;;;;3.10;2.80;;;12.30;56.20;13.10;100133.00;;;;5048433;28;20182;-43
2023/12/04 09:31:02;;;;;;;2.90;2.70;;;12.40;56.20;13.20;100132.00;;;;5048205;28;20174;-43
2023/12/04 09:33:27;;;;;;;2.90;2.70;;;12.50;56.20;13.20;100121.00;;;;5046605;28;20699;-43
2023/12/04 09:35:53;;;;;;;2.90;2.70;;;12.60;56.50;13.30;100130.00;;;;5047549;28;20674;-43
2023/12/04 09:38:19;;;;;;;2.80;2.60;;;12.70;56.50;13.40;100131.00;;;;5042985;28;20182;-43
2023/12/04 09:40:45;;;;;;;2.70;2.50;;;12.90;56.30;13.50;100114.00;;;;5048394;28;20171;-44
2023/12/04 09:43:10;;;;;;;2.70;2.50;;;13.00;56.30;13.60;100121.00;;;;5046930;28;20186;-45
2023/12/04 09:45:36;;;;;;;2.70;2.50;;;13.20;56.20;13.70;100116.00;;;;5028117;28;20208;-42
2023/12/04 09:48:02;;;;;;;3.00;2.70;;;13.30;56.20;13.80;100112.00;;;;5046781;28;20182;-42
2023/12/04 09:50:28;;;;;;;3.20;2.90;;;13.50;56.10;13.90;100096.00;;;;5046916;28;20177;-42
2023/12/04 09:52:53;;;;;;;2.60;2.40;;;13.60;55.90;14.00;100096.00;;;;5047307;28;20194;-41
2023/12/04 09:55:19;;;;;;;2.80;2.60;;;13.80;55.90;14.20;100086.00;;;;5050750;28;20560;-42
2023/12/04 09:57:45;;;;;;;2.80;2.60;;;13.90;55.70;14.30;100073.00;;;;5049160;28;20175;-42
2023/12/04 10:00:14;;;;;;;2.53;2.33;;;14.10;55.50;14.40;100082.00;;;;5050674;28;20181;-42
2023/12/04 10:02:40;;;;;;;2.90;2.60;;;14.20;55.40;14.50;100076.00;;;;5033835;28;20679;-43
2023/12/04 10:05:07;;;;;;;2.77;2.57;;;14.30;55.40;14.70;100078.00;;;;5051424;28;20205;-43
2023/12/04 10:07:33;;;;;;;2.60;2.40;;;14.50;55.40;14.80;100062.00;;;;5051142;28;20643;-43
2023/12/04 10:09:59;;;;;;;2.50;2.30;;;14.70;55.50;14.90;100065.00;;;;5051614;28;20217;-43
2023/12/04 10:12:25;;;;;;;2.63;2.30;;;14.70;55.20;15.00;100058.00;;;;5051310;28;20194;-42
2023/12/04 10:15:08;;;;;;;2.60;2.40;;;14.80;55.20;15.10;100056.00;;;;5051560;28;20190;-42
2023/12/04 10:17:39;;;;;;;2.53;2.33;;;14.90;55.10;15.20;100051.00;;;;5051259;28;20706;-42
2023/12/04 10:20:12;;;;;;;3.73;2.63;;;15.00;55.10;15.30;100051.00;;;;5051761;28;20177;-44
2023/12/04 10:22:56;;;;;;;6.37;2.50;;;15.10;55.20;15.40;100034.00;;;;5050112;28;20182;-42
2023/12/04 10:25:23;;;;;;;9.27;2.77;;;15.30;55.00;15.50;100050.00;;;;5049846;28;20200;-44
2023/12/04 10:27:49;;;;;;;6.47;2.83;;;15.30;55.00;15.60;100045.00;;;;5050754;28;20178;-42
2023/12/04 10:30:28;;;;;;;4.30;2.90;;;15.40;55.10;15.70;100044.00;;;;5050062;28;20248;-42
2023/12/04 10:33:00;;;;;;;4.10;2.70;;;15.40;54.90;15.70;100033.00;;;;5047554;28;20198;-42
2023/12/04 10:35:32;;;;;;;3.67;2.70;;;15.50;54.80;15.80;100034.00;;;;5051055;28;20671;-43
2023/12/04 10:37:58;;;;;;;6.30;2.87;;;15.60;54.70;15.90;100042.00;;;;5047970;28;20193;-43
2023/12/04 10:40:25;;;;;;;3.57;2.43;;;15.70;54.60;16.00;100028.00;;;;5051178;28;20167;-43
2023/12/04 10:42:51;;;;;;;3.13;2.50;;;15.70;55.10;16.10;100019.00;;;;5046463;28;20178;-43